sensor_id;sensor_type;location;lat;lon;timestamp;P1;durP1;ratioP1;P2;durP2;ratioP2
14903;SDS011;7543;53.148;8.234;2023-04-23T00:01:39;23.07;;;14.40;;
14903;SDS011;7543;53.148;8.234;2023-04-23T00:04:08;23.73;;;13.90;;
14903;SDS011;7543;53.148;8.234;2023-04-23T00:06:36;21.90;;;12.83;;
14903;SDS011;7543;53.148;8.234;2023-04-23T00:09:04;19.83;;;12.67;;
14903;SDS011;7543;53.148;8.234;2023-04-23T00:11:35;19.53;;;13.40;;
14903;SDS011;7543;53.148;8.234;2023-04-23T00:14:04;22.67;;;13.37;;
14903;SDS011;7543;53.148;8.234;2023-04-23T00:16:33;19.40;;;12.30;;
14903;SDS011;7543;53.148;8.234;2023-04-23T00:19:01;21.10;;;13.13;;
14903;SDS011;7543;53.148;8.234;2023-04-23T00:21:30;21.40;;;12.70;;
14903;SDS011;7543;53.148;8.234;2023-04-23T00:23:58;21.33;;;13.00;;
14903;SDS011;7543;53.148;8.234;2023-04-23T00:26:26;23.13;;;13.43;;
14903;SDS011;7543;53.148;8.234;2023-04-23T00:28:56;22.47;;;12.80;;
14903;SDS011;7543;53.148;8.234;2023-04-23T00:31:24;22.93;;;12.70;;
14903;SDS011;7543;53.148;8.234;2023-04-23T00:33:53;19.07;;;12.53;;
14903;SDS011;7543;53.148;8.234;2023-04-23T00:36:22;21.40;;;12.57;;
14903;SDS011;7543;53.148;8.234;2023-04-23T00:38:51;20.00;;;12.87;;
14903;SDS011;7543;53.148;8.234;2023-04-23T00:41:20;20.63;;;11.97;;
14903;SDS011;7543;53.148;8.234;2023-04-23T00:43:48;21.77;;;12.70;;
14903;SDS011;7543;53.148;8.234;2023-04-23T00:46:19;22.53;;;12.73;;
14903;SDS011;7543;53.148;8.234;2023-04-23T00:48:48;18.60;;;11.37;;
14903;SDS011;7543;53.148;8.234;2023-04-23T00:51:16;19.60;;;11.90;;
14903;SDS011;7543;53.148;8.234;2023-04-23T00:53:45;19.57;;;12.37;;
14903;SDS011;7543;53.148;8.234;2023-04-23T00:56:13;16.23;;;10.70;;
14903;SDS011;7543;53.148;8.234;2023-04-23T00:58:42;16.87;;;10.57;;
14903;SDS011;7543;53.148;8.234;2023-04-23T01:01:11;19.57;;;10.40;;
14903;SDS011;7543;53.148;8.234;2023-04-23T01:03:41;16.40;;;10.07;;
14903;SDS011;7543;53.148;8.234;2023-04-23T01:06:09;19.43;;;10.83;;
14903;SDS011;7543;53.148;8.234;2023-04-23T01:08:38;16.80;;;10.17;;
14903;SDS011;7543;53.148;8.234;2023-04-23T01:11:08;16.83;;;10.30;;
14903;SDS011;7543;53.148;8.234;2023-04-23T01:13:37;17.03;;;9.87;;
14903;SDS011;7543;53.148;8.234;2023-04-23T01:16:05;16.13;;;10.27;;
14903;SDS011;7543;53.148;8.234;2023-04-23T01:18:34;16.27;;;9.57;;
14903;SDS011;7543;53.148;8.234;2023-04-23T01:21:04;16.57;;;9.77;;
14903;SDS011;7543;53.148;8.234;2023-04-23T01:23:34;17.33;;;10.73;;
14903;SDS011;7543;53.148;8.234;2023-04-23T01:26:02;16.97;;;11.10;;
14903;SDS011;7543;53.148;8.234;2023-04-23T01:28:31;17.80;;;11.23;;
14903;SDS011;7543;53.148;8.234;2023-04-23T01:30:59;19.40;;;11.23;;
14903;SDS011;7543;53.148;8.234;2023-04-23T01:33:29;17.67;;;10.63;;
14903;SDS011;7543;53.148;8.234;2023-04-23T01:35:58;22.70;;;11.80;;
14903;SDS011;7543;53.148;8.234;2023-04-23T01:38:27;19.97;;;11.33;;
14903;SDS011;7543;53.148;8.234;2023-04-23T01:40:59;18.47;;;10.37;;
14903;SDS011;7543;53.148;8.234;2023-04-23T01:43:27;16.53;;;10.23;;
14903;SDS011;7543;53.148;8.234;2023-04-23T01:45:56;17.43;;;9.87;;
14903;SDS011;7543;53.148;8.234;2023-04-23T01:48:25;16.43;;;9.43;;
14903;SDS011;7543;53.148;8.234;2023-04-23T01:50:53;14.87;;;8.97;;
14903;SDS011;7543;53.148;8.234;2023-04-23T01:53:21;17.77;;;9.80;;
14903;SDS011;7543;53.148;8.234;2023-04-23T01:55:50;17.00;;;9.67;;
14903;SDS011;7543;53.148;8.234;2023-04-23T01:58:20;17.20;;;9.70;;
14903;SDS011;7543;53.148;8.234;2023-04-23T02:00:49;15.87;;;9.80;;
14903;SDS011;7543;53.148;8.234;2023-04-23T02:03:17;18.63;;;10.57;;
14903;SDS011;7543;53.148;8.234;2023-04-23T02:05:45;17.53;;;10.23;;
14903;SDS011;7543;53.148;8.234;2023-04-23T02:08:14;15.63;;;9.87;;
14903;SDS011;7543;53.148;8.234;2023-04-23T02:10:43;18.90;;;10.63;;
14903;SDS011;7543;53.148;8.234;2023-04-23T02:13:11;17.30;;;9.80;;
14903;SDS011;7543;53.148;8.234;2023-04-23T02:15:42;16.60;;;10.03;;
14903;SDS011;7543;53.148;8.234;2023-04-23T02:18:10;18.50;;;10.40;;
14903;SDS011;7543;53.148;8.234;2023-04-23T02:20:39;16.87;;;10.20;;
14903;SDS011;7543;53.148;8.234;2023-04-23T02:23:07;16.33;;;9.90;;
14903;SDS011;7543;53.148;8.234;2023-04-23T02:25:35;20.20;;;10.57;;
14903;SDS011;7543;53.148;8.234;2023-04-23T02:28:05;18.13;;;10.60;;
14903;SDS011;7543;53.148;8.234;2023-04-23T02:30:34;20.37;;;10.63;;
14903;SDS011;7543;53.148;8.234;2023-04-23T02:33:04;16.30;;;10.47;;
14903;SDS011;7543;53.148;8.234;2023-04-23T02:35:32;17.77;;;10.37;;
14903;SDS011;7543;53.148;8.234;2023-04-23T02:38:00;19.13;;;10.77;;
14903;SDS011;7543;53.148;8.234;2023-04-23T02:40:28;17.50;;;11.10;;
14903;SDS011;7543;53.148;8.234;2023-04-23T02:42:57;17.83;;;9.73;;
14903;SDS011;7543;53.148;8.234;2023-04-23T02:45:25;15.23;;;10.17;;
14903;SDS011;7543;53.148;8.234;2023-04-23T02:47:53;15.07;;;9.33;;
14903;SDS011;7543;53.148;8.234;2023-04-23T02:50:23;16.20;;;10.23;;
14903;SDS011;7543;53.148;8.234;2023-04-23T02:52:51;17.57;;;10.53;;
14903;SDS011;7543;53.148;8.234;2023-04-23T02:55:20;15.00;;;9.60;;
14903;SDS011;7543;53.148;8.234;2023-04-23T02:57:51;18.57;;;10.30;;
14903;SDS011;7543;53.148;8.234;2023-04-23T03:00:19;17.03;;;9.77;;
14903;SDS011;7543;53.148;8.234;2023-04-23T03:02:47;16.33;;;10.23;;
14903;SDS011;7543;53.148;8.234;2023-04-23T03:05:16;15.33;;;9.87;;
14903;SDS011;7543;53.148;8.234;2023-04-23T03:07:45;18.20;;;10.37;;
14903;SDS011;7543;53.148;8.234;2023-04-23T03:10:14;16.20;;;10.27;;
14903;SDS011;7543;53.148;8.234;2023-04-23T03:12:42;18.73;;;10.57;;
14903;SDS011;7543;53.148;8.234;2023-04-23T03:15:10;19.60;;;11.30;;
14903;SDS011;7543;53.148;8.234;2023-04-23T03:17:39;19.07;;;10.97;;
14903;SDS011;7543;53.148;8.234;2023-04-23T03:20:08;19.20;;;11.03;;
14903;SDS011;7543;53.148;8.234;2023-04-23T03:22:38;19.70;;;12.23;;
14903;SDS011;7543;53.148;8.234;2023-04-23T03:25:08;17.20;;;10.80;;
14903;SDS011;7543;53.148;8.234;2023-04-23T03:27:37;18.67;;;11.03;;
14903;SDS011;7543;53.148;8.234;2023-04-23T03:30:06;17.23;;;11.10;;
14903;SDS011;7543;53.148;8.234;2023-04-23T03:32:35;17.17;;;10.70;;
14903;SDS011;7543;53.148;8.234;2023-04-23T03:35:05;21.57;;;12.63;;
14903;SDS011;7543;53.148;8.234;2023-04-23T03:37:36;20.87;;;12.20;;
14903;SDS011;7543;53.148;8.234;2023-04-23T03:40:06;19.80;;;11.60;;
14903;SDS011;7543;53.148;8.234;2023-04-23T03:42:40;18.40;;;11.53;;
14903;SDS011;7543;53.148;8.234;2023-04-23T03:45:10;19.37;;;12.20;;
14903;SDS011;7543;53.148;8.234;2023-04-23T03:47:39;23.37;;;13.10;;
14903;SDS011;7543;53.148;8.234;2023-04-23T03:50:08;20.23;;;12.03;;
14903;SDS011;7543;53.148;8.234;2023-04-23T03:52:39;23.10;;;12.47;;
14903;SDS011;7543;53.148;8.234;2023-04-23T03:55:14;22.17;;;12.07;;
14903;SDS011;7543;53.148;8.234;2023-04-23T03:57:45;21.97;;;13.60;;
14903;SDS011;7543;53.148;8.234;2023-04-23T04:00:20;21.97;;;12.90;;
14903;SDS011;7543;53.148;8.234;2023-04-23T04:02:48;22.57;;;12.60;;
14903;SDS011;7543;53.148;8.234;2023-04-23T04:05:17;17.80;;;11.57;;
14903;SDS011;7543;53.148;8.234;2023-04-23T04:07:46;20.40;;;12.87;;
14903;SDS011;7543;53.148;8.234;2023-04-23T04:10:15;20.57;;;12.77;;
14903;SDS011;7543;53.148;8.234;2023-04-23T04:12:43;20.10;;;12.03;;
14903;SDS011;7543;53.148;8.234;2023-04-23T04:15:14;20.40;;;12.33;;
14903;SDS011;7543;53.148;8.234;2023-04-23T04:17:43;20.53;;;12.87;;
14903;SDS011;7543;53.148;8.234;2023-04-23T04:20:12;21.93;;;13.37;;
14903;SDS011;7543;53.148;8.234;2023-04-23T04:22:40;29.33;;;13.80;;
14903;SDS011;7543;53.148;8.234;2023-04-23T04:25:08;19.13;;;12.33;;
14903;SDS011;7543;53.148;8.234;2023-04-23T04:27:39;21.60;;;13.20;;
14903;SDS011;7543;53.148;8.234;2023-04-23T04:30:09;22.20;;;13.23;;
14903;SDS011;7543;53.148;8.234;2023-04-23T04:32:38;19.90;;;12.77;;
14903;SDS011;7543;53.148;8.234;2023-04-23T04:35:08;22.53;;;12.70;;
14903;SDS011;7543;53.148;8.234;2023-04-23T04:37:36;20.20;;;12.23;;
14903;SDS011;7543;53.148;8.234;2023-04-23T04:40:05;20.97;;;11.97;;
14903;SDS011;7543;53.148;8.234;2023-04-23T04:42:34;20.30;;;12.17;;
14903;SDS011;7543;53.148;8.234;2023-04-23T04:45:04;19.70;;;12.00;;
14903;SDS011;7543;53.148;8.234;2023-04-23T04:47:34;21.97;;;12.67;;
14903;SDS011;7543;53.148;8.234;2023-04-23T04:50:03;22.53;;;12.73;;
14903;SDS011;7543;53.148;8.234;2023-04-23T04:52:32;19.93;;;11.07;;
14903;SDS011;7543;53.148;8.234;2023-04-23T04:55:00;22.63;;;12.67;;
14903;SDS011;7543;53.148;8.234;2023-04-23T04:57:28;19.97;;;12.90;;
14903;SDS011;7543;53.148;8.234;2023-04-23T04:59:57;21.30;;;12.30;;
14903;SDS011;7543;53.148;8.234;2023-04-23T05:02:26;24.37;;;12.73;;
14903;SDS011;7543;53.148;8.234;2023-04-23T05:04:55;20.90;;;13.50;;
14903;SDS011;7543;53.148;8.234;2023-04-23T05:07:24;24.27;;;13.30;;
14903;SDS011;7543;53.148;8.234;2023-04-23T05:09:52;22.33;;;12.80;;
14903;SDS011;7543;53.148;8.234;2023-04-23T05:12:20;22.13;;;13.27;;
14903;SDS011;7543;53.148;8.234;2023-04-23T05:14:49;25.53;;;13.70;;
14903;SDS011;7543;53.148;8.234;2023-04-23T05:17:17;21.77;;;13.47;;
14903;SDS011;7543;53.148;8.234;2023-04-23T05:19:47;21.47;;;12.57;;
14903;SDS011;7543;53.148;8.234;2023-04-23T05:22:15;24.13;;;14.00;;
14903;SDS011;7543;53.148;8.234;2023-04-23T05:24:44;26.90;;;14.07;;
14903;SDS011;7543;53.148;8.234;2023-04-23T05:27:12;22.00;;;13.77;;
14903;SDS011;7543;53.148;8.234;2023-04-23T05:29:41;20.20;;;13.30;;
14903;SDS011;7543;53.148;8.234;2023-04-23T05:32:09;23.37;;;14.30;;
14903;SDS011;7543;53.148;8.234;2023-04-23T05:34:38;25.33;;;13.50;;
14903;SDS011;7543;53.148;8.234;2023-04-23T05:37:07;22.20;;;13.43;;
14903;SDS011;7543;53.148;8.234;2023-04-23T05:39:36;24.00;;;14.07;;
14903;SDS011;7543;53.148;8.234;2023-04-23T05:42:05;26.60;;;14.90;;
14903;SDS011;7543;53.148;8.234;2023-04-23T05:44:33;23.37;;;14.47;;
14903;SDS011;7543;53.148;8.234;2023-04-23T05:47:01;24.40;;;14.27;;
14903;SDS011;7543;53.148;8.234;2023-04-23T05:49:30;26.47;;;14.60;;
14903;SDS011;7543;53.148;8.234;2023-04-23T05:51:58;25.10;;;14.60;;
14903;SDS011;7543;53.148;8.234;2023-04-23T05:54:29;24.27;;;13.50;;
14903;SDS011;7543;53.148;8.234;2023-04-23T05:56:58;28.13;;;14.40;;
14903;SDS011;7543;53.148;8.234;2023-04-23T05:59:26;22.80;;;14.13;;
14903;SDS011;7543;53.148;8.234;2023-04-23T06:01:55;22.63;;;14.53;;
14903;SDS011;7543;53.148;8.234;2023-04-23T06:04:23;24.40;;;13.93;;
14903;SDS011;7543;53.148;8.234;2023-04-23T06:06:52;28.57;;;15.37;;
14903;SDS011;7543;53.148;8.234;2023-04-23T06:09:21;24.43;;;13.83;;
14903;SDS011;7543;53.148;8.234;2023-04-23T06:11:51;28.07;;;14.37;;
14903;SDS011;7543;53.148;8.234;2023-04-23T06:14:20;26.57;;;14.90;;
14903;SDS011;7543;53.148;8.234;2023-04-23T06:16:48;26.67;;;15.87;;
14903;SDS011;7543;53.148;8.234;2023-04-23T06:19:17;32.33;;;16.53;;
14903;SDS011;7543;53.148;8.234;2023-04-23T06:21:45;29.43;;;16.00;;
14903;SDS011;7543;53.148;8.234;2023-04-23T06:24:13;30.63;;;17.10;;
14903;SDS011;7543;53.148;8.234;2023-04-23T06:26:41;34.30;;;17.73;;
14903;SDS011;7543;53.148;8.234;2023-04-23T06:29:16;30.47;;;18.07;;
14903;SDS011;7543;53.148;8.234;2023-04-23T06:32:04;31.43;;;18.20;;
14903;SDS011;7543;53.148;8.234;2023-04-23T06:34:33;33.83;;;18.37;;
14903;SDS011;7543;53.148;8.234;2023-04-23T06:37:01;37.23;;;19.53;;
14903;SDS011;7543;53.148;8.234;2023-04-23T06:39:29;32.93;;;19.20;;
14903;SDS011;7543;53.148;8.234;2023-04-23T06:41:57;37.00;;;19.10;;
14903;SDS011;7543;53.148;8.234;2023-04-23T06:44:36;34.73;;;19.30;;
14903;SDS011;7543;53.148;8.234;2023-04-23T06:47:05;33.37;;;18.83;;
14903;SDS011;7543;53.148;8.234;2023-04-23T06:49:34;35.23;;;20.07;;
14903;SDS011;7543;53.148;8.234;2023-04-23T06:52:02;37.57;;;20.20;;
14903;SDS011;7543;53.148;8.234;2023-04-23T06:54:30;36.10;;;19.87;;
14903;SDS011;7543;53.148;8.234;2023-04-23T06:56:58;38.10;;;20.43;;
14903;SDS011;7543;53.148;8.234;2023-04-23T06:59:27;40.33;;;22.03;;
14903;SDS011;7543;53.148;8.234;2023-04-23T07:02:00;37.13;;;20.23;;
14903;SDS011;7543;53.148;8.234;2023-04-23T07:04:28;40.33;;;21.97;;
14903;SDS011;7543;53.148;8.234;2023-04-23T07:06:57;38.57;;;22.17;;
14903;SDS011;7543;53.148;8.234;2023-04-23T07:09:26;44.80;;;23.73;;
14903;SDS011;7543;53.148;8.234;2023-04-23T07:11:56;43.57;;;24.23;;
14903;SDS011;7543;53.148;8.234;2023-04-23T07:14:24;49.67;;;26.90;;
14903;SDS011;7543;53.148;8.234;2023-04-23T07:16:53;47.73;;;25.00;;
14903;SDS011;7543;53.148;8.234;2023-04-23T07:19:23;51.70;;;26.77;;
14903;SDS011;7543;53.148;8.234;2023-04-23T07:21:51;46.70;;;25.47;;
14903;SDS011;7543;53.148;8.234;2023-04-23T07:24:19;49.07;;;26.50;;
14903;SDS011;7543;53.148;8.234;2023-04-23T07:26:48;49.87;;;28.37;;
14903;SDS011;7543;53.148;8.234;2023-04-23T07:29:16;47.50;;;26.87;;
14903;SDS011;7543;53.148;8.234;2023-04-23T07:31:44;51.20;;;28.33;;
14903;SDS011;7543;53.148;8.234;2023-04-23T07:34:13;49.77;;;27.73;;
14903;SDS011;7543;53.148;8.234;2023-04-23T07:36:43;51.23;;;27.37;;
14903;SDS011;7543;53.148;8.234;2023-04-23T07:39:12;42.80;;;26.17;;
14903;SDS011;7543;53.148;8.234;2023-04-23T07:41:40;42.73;;;25.30;;
14903;SDS011;7543;53.148;8.234;2023-04-23T07:44:08;48.23;;;26.70;;
14903;SDS011;7543;53.148;8.234;2023-04-23T07:46:37;48.00;;;27.00;;
14903;SDS011;7543;53.148;8.234;2023-04-23T07:49:05;44.37;;;25.40;;
14903;SDS011;7543;53.148;8.234;2023-04-23T07:51:34;45.30;;;25.07;;
14903;SDS011;7543;53.148;8.234;2023-04-23T07:54:04;44.13;;;25.53;;
14903;SDS011;7543;53.148;8.234;2023-04-23T07:56:32;43.63;;;24.80;;
14903;SDS011;7543;53.148;8.234;2023-04-23T07:59:02;44.43;;;25.47;;
14903;SDS011;7543;53.148;8.234;2023-04-23T08:01:31;44.37;;;24.27;;
14903;SDS011;7543;53.148;8.234;2023-04-23T08:03:59;43.00;;;23.80;;
14903;SDS011;7543;53.148;8.234;2023-04-23T08:06:28;37.07;;;21.00;;
14903;SDS011;7543;53.148;8.234;2023-04-23T08:08:57;37.67;;;21.33;;
14903;SDS011;7543;53.148;8.234;2023-04-23T08:11:27;35.10;;;20.30;;
14903;SDS011;7543;53.148;8.234;2023-04-23T08:13:55;32.03;;;18.07;;
14903;SDS011;7543;53.148;8.234;2023-04-23T08:16:24;28.13;;;17.73;;
14903;SDS011;7543;53.148;8.234;2023-04-23T08:18:52;32.33;;;16.47;;
14903;SDS011;7543;53.148;8.234;2023-04-23T08:21:21;30.37;;;16.97;;
14903;SDS011;7543;53.148;8.234;2023-04-23T08:23:50;26.37;;;16.07;;
14903;SDS011;7543;53.148;8.234;2023-04-23T08:26:19;30.33;;;17.33;;
14903;SDS011;7543;53.148;8.234;2023-04-23T08:28:49;29.23;;;17.23;;
14903;SDS011;7543;53.148;8.234;2023-04-23T08:31:18;29.20;;;15.73;;
14903;SDS011;7543;53.148;8.234;2023-04-23T08:33:46;31.00;;;17.60;;
14903;SDS011;7543;53.148;8.234;2023-04-23T08:36:14;29.97;;;17.30;;
14903;SDS011;7543;53.148;8.234;2023-04-23T08:38:43;24.63;;;14.63;;
14903;SDS011;7543;53.148;8.234;2023-04-23T08:41:13;23.57;;;15.03;;
14903;SDS011;7543;53.148;8.234;2023-04-23T08:43:42;24.60;;;15.27;;
14903;SDS011;7543;53.148;8.234;2023-04-23T08:46:13;26.73;;;13.73;;
14903;SDS011;7543;53.148;8.234;2023-04-23T08:48:42;18.90;;;12.03;;
14903;SDS011;7543;53.148;8.234;2023-04-23T08:51:12;22.37;;;11.90;;
14903;SDS011;7543;53.148;8.234;2023-04-23T08:53:44;21.67;;;14.07;;
14903;SDS011;7543;53.148;8.234;2023-04-23T08:56:19;19.80;;;12.43;;
14903;SDS011;7543;53.148;8.234;2023-04-23T08:58:48;18.63;;;11.67;;
14903;SDS011;7543;53.148;8.234;2023-04-23T09:01:18;20.20;;;11.30;;
14903;SDS011;7543;53.148;8.234;2023-04-23T09:03:46;19.73;;;11.77;;
14903;SDS011;7543;53.148;8.234;2023-04-23T09:06:15;17.97;;;11.43;;
14903;SDS011;7543;53.148;8.234;2023-04-23T09:08:43;17.23;;;11.47;;
14903;SDS011;7543;53.148;8.234;2023-04-23T09:11:12;15.70;;;9.70;;
14903;SDS011;7543;53.148;8.234;2023-04-23T09:13:42;16.23;;;10.17;;
14903;SDS011;7543;53.148;8.234;2023-04-23T09:16:10;15.93;;;9.80;;
14903;SDS011;7543;53.148;8.234;2023-04-23T09:18:40;16.87;;;10.17;;
14903;SDS011;7543;53.148;8.234;2023-04-23T09:21:09;17.60;;;10.67;;
14903;SDS011;7543;53.148;8.234;2023-04-23T09:23:37;14.70;;;9.80;;
14903;SDS011;7543;53.148;8.234;2023-04-23T09:26:07;13.87;;;9.47;;
14903;SDS011;7543;53.148;8.234;2023-04-23T09:28:35;14.87;;;9.40;;
14903;SDS011;7543;53.148;8.234;2023-04-23T09:31:04;13.13;;;8.93;;
14903;SDS011;7543;53.148;8.234;2023-04-23T09:33:33;12.67;;;8.53;;
14903;SDS011;7543;53.148;8.234;2023-04-23T09:36:07;12.43;;;7.93;;
14903;SDS011;7543;53.148;8.234;2023-04-23T09:38:38;13.13;;;8.30;;
14903;SDS011;7543;53.148;8.234;2023-04-23T09:41:19;13.63;;;8.20;;
14903;SDS011;7543;53.148;8.234;2023-04-23T09:43:48;11.20;;;7.67;;
14903;SDS011;7543;53.148;8.234;2023-04-23T09:46:16;11.77;;;7.87;;
14903;SDS011;7543;53.148;8.234;2023-04-23T09:48:44;12.30;;;7.67;;
14903;SDS011;7543;53.148;8.234;2023-04-23T09:51:15;13.60;;;8.87;;
14903;SDS011;7543;53.148;8.234;2023-04-23T09:53:44;13.20;;;8.03;;
14903;SDS011;7543;53.148;8.234;2023-04-23T09:56:13;12.57;;;8.37;;
14903;SDS011;7543;53.148;8.234;2023-04-23T09:58:41;16.33;;;9.17;;
14903;SDS011;7543;53.148;8.234;2023-04-23T10:01:12;14.97;;;9.67;;
14903;SDS011;7543;53.148;8.234;2023-04-23T10:03:41;13.70;;;9.40;;
14903;SDS011;7543;53.148;8.234;2023-04-23T10:06:12;16.35;;;9.20;;
14903;SDS011;7543;53.148;8.234;2023-04-23T10:08:42;16.40;;;9.63;;
14903;SDS011;7543;53.148;8.234;2023-04-23T10:11:10;16.33;;;10.83;;
14903;SDS011;7543;53.148;8.234;2023-04-23T10:13:39;17.50;;;9.83;;
14903;SDS011;7543;53.148;8.234;2023-04-23T10:16:08;15.50;;;10.47;;
14903;SDS011;7543;53.148;8.234;2023-04-23T10:18:37;11.90;;;9.05;;
14903;SDS011;7543;53.148;8.234;2023-04-23T10:21:06;15.43;;;10.33;;
14903;SDS011;7543;53.148;8.234;2023-04-23T10:23:35;17.60;;;10.17;;
14903;SDS011;7543;53.148;8.234;2023-04-23T10:26:06;17.27;;;10.30;;
14903;SDS011;7543;53.148;8.234;2023-04-23T10:28:36;17.37;;;10.57;;
14903;SDS011;7543;53.148;8.234;2023-04-23T10:31:05;15.87;;;10.73;;
14903;SDS011;7543;53.148;8.234;2023-04-23T10:33:33;18.40;;;10.13;;
14903;SDS011;7543;53.148;8.234;2023-04-23T10:36:03;17.40;;;11.17;;
14903;SDS011;7543;53.148;8.234;2023-04-23T10:38:32;20.65;;;10.77;;
14903;SDS011;7543;53.148;8.234;2023-04-23T10:41:01;17.37;;;11.37;;
14903;SDS011;7543;53.148;8.234;2023-04-23T10:43:31;17.97;;;11.13;;
14903;SDS011;7543;53.148;8.234;2023-04-23T10:46:00;16.57;;;11.40;;
14903;SDS011;7543;53.148;8.234;2023-04-23T10:48:28;16.30;;;10.18;;
14903;SDS011;7543;53.148;8.234;2023-04-23T10:50:57;18.47;;;10.93;;
14903;SDS011;7543;53.148;8.234;2023-04-23T10:53:25;15.57;;;10.25;;
14903;SDS011;7543;53.148;8.234;2023-04-23T10:56:03;14.25;;;9.93;;
14903;SDS011;7543;53.148;8.234;2023-04-23T10:58:47;15.43;;;10.18;;
14903;SDS011;7543;53.148;8.234;2023-04-23T11:01:17;15.93;;;11.05;;
14903;SDS011;7543;53.148;8.234;2023-04-23T11:03:46;14.77;;;9.37;;
14903;SDS011;7543;53.148;8.234;2023-04-23T11:06:18;14.30;;;9.73;;
14903;SDS011;7543;53.148;8.234;2023-04-23T11:08:50;15.38;;;10.32;;
14903;SDS011;7543;53.148;8.234;2023-04-23T11:11:23;14.43;;;10.25;;
14903;SDS011;7543;53.148;8.234;2023-04-23T11:13:55;17.42;;;10.35;;
14903;SDS011;7543;53.148;8.234;2023-04-23T11:16:24;14.77;;;10.98;;
14903;SDS011;7543;53.148;8.234;2023-04-23T11:18:59;17.77;;;11.48;;
14903;SDS011;7543;53.148;8.234;2023-04-23T11:24:22;14.95;;;10.55;;
14903;SDS011;7543;53.148;8.234;2023-04-23T11:26:51;13.30;;;8.90;;
14903;SDS011;7543;53.148;8.234;2023-04-23T11:29:22;13.85;;;9.40;;
14903;SDS011;7543;53.148;8.234;2023-04-23T11:31:51;14.13;;;8.98;;
14903;SDS011;7543;53.148;8.234;2023-04-23T11:34:20;10.60;;;7.18;;
14903;SDS011;7543;53.148;8.234;2023-04-23T11:36:50;12.07;;;7.95;;
14903;SDS011;7543;53.148;8.234;2023-04-23T11:39:19;10.25;;;7.60;;
14903;SDS011;7543;53.148;8.234;2023-04-23T11:41:50;9.40;;;7.00;;
14903;SDS011;7543;53.148;8.234;2023-04-23T11:44:19;11.45;;;6.82;;
14903;SDS011;7543;53.148;8.234;2023-04-23T11:46:49;11.53;;;6.67;;
14903;SDS011;7543;53.148;8.234;2023-04-23T11:49:17;8.80;;;6.10;;
14903;SDS011;7543;53.148;8.234;2023-04-23T11:51:47;11.45;;;6.65;;
14903;SDS011;7543;53.148;8.234;2023-04-23T11:54:15;11.13;;;6.05;;
14903;SDS011;7543;53.148;8.234;2023-04-23T11:56:44;8.45;;;5.72;;
14903;SDS011;7543;53.148;8.234;2023-04-23T11:59:12;9.10;;;5.82;;
14903;SDS011;7543;53.148;8.234;2023-04-23T12:01:44;8.00;;;5.00;;
14903;SDS011;7543;53.148;8.234;2023-04-23T12:04:17;6.22;;;4.68;;
14903;SDS011;7543;53.148;8.234;2023-04-23T12:06:47;7.03;;;4.45;;
14903;SDS011;7543;53.148;8.234;2023-04-23T12:09:17;8.75;;;3.50;;
14903;SDS011;7543;53.148;8.234;2023-04-23T12:11:46;8.68;;;4.97;;
14903;SDS011;7543;53.148;8.234;2023-04-23T12:14:17;5.82;;;4.43;;
14903;SDS011;7543;53.148;8.234;2023-04-23T12:16:46;8.20;;;4.90;;
14903;SDS011;7543;53.148;8.234;2023-04-23T12:19:20;5.15;;;3.65;;
14903;SDS011;7543;53.148;8.234;2023-04-23T12:21:50;6.20;;;4.68;;
14903;SDS011;7543;53.148;8.234;2023-04-23T12:24:21;6.27;;;4.67;;
14903;SDS011;7543;53.148;8.234;2023-04-23T12:26:50;8.18;;;4.00;;
14903;SDS011;7543;53.148;8.234;2023-04-23T12:29:20;6.57;;;4.55;;
14903;SDS011;7543;53.148;8.234;2023-04-23T12:31:49;5.88;;;4.25;;
14903;SDS011;7543;53.148;8.234;2023-04-23T12:34:20;7.53;;;4.45;;
14903;SDS011;7543;53.148;8.234;2023-04-23T12:36:49;8.07;;;4.72;;
14903;SDS011;7543;53.148;8.234;2023-04-23T12:39:22;8.07;;;4.05;;
14903;SDS011;7543;53.148;8.234;2023-04-23T12:41:53;7.72;;;4.82;;
14903;SDS011;7543;53.148;8.234;2023-04-23T12:44:22;7.57;;;4.95;;
14903;SDS011;7543;53.148;8.234;2023-04-23T12:46:54;6.57;;;4.47;;
14903;SDS011;7543;53.148;8.234;2023-04-23T12:49:24;7.13;;;4.57;;
14903;SDS011;7543;53.148;8.234;2023-04-23T12:51:54;6.15;;;4.40;;
14903;SDS011;7543;53.148;8.234;2023-04-23T12:54:27;5.32;;;4.00;;
14903;SDS011;7543;53.148;8.234;2023-04-23T12:56:56;7.57;;;4.15;;
14903;SDS011;7543;53.148;8.234;2023-04-23T12:59:25;6.28;;;3.83;;
14903;SDS011;7543;53.148;8.234;2023-04-23T13:01:53;5.90;;;4.32;;
14903;SDS011;7543;53.148;8.234;2023-04-23T13:04:22;6.03;;;3.65;;
14903;SDS011;7543;53.148;8.234;2023-04-23T13:06:51;6.20;;;3.75;;
14903;SDS011;7543;53.148;8.234;2023-04-23T13:09:20;6.38;;;4.10;;
14903;SDS011;7543;53.148;8.234;2023-04-23T13:11:50;6.28;;;3.80;;
14903;SDS011;7543;53.148;8.234;2023-04-23T13:14:18;5.30;;;3.95;;
14903;SDS011;7543;53.148;8.234;2023-04-23T13:16:47;4.22;;;3.03;;
14903;SDS011;7543;53.148;8.234;2023-04-23T13:19:15;3.85;;;2.90;;
14903;SDS011;7543;53.148;8.234;2023-04-23T13:21:44;5.00;;;2.80;;
14903;SDS011;7543;53.148;8.234;2023-04-23T13:24:13;4.53;;;2.87;;
14903;SDS011;7543;53.148;8.234;2023-04-23T13:26:42;6.60;;;2.55;;
14903;SDS011;7543;53.148;8.234;2023-04-23T13:29:10;5.32;;;2.83;;
14903;SDS011;7543;53.148;8.234;2023-04-23T13:31:39;4.15;;;3.15;;
14903;SDS011;7543;53.148;8.234;2023-04-23T13:34:08;5.32;;;2.97;;
14903;SDS011;7543;53.148;8.234;2023-04-23T13:36:36;5.38;;;2.88;;
14903;SDS011;7543;53.148;8.234;2023-04-23T13:39:07;4.38;;;2.75;;
14903;SDS011;7543;53.148;8.234;2023-04-23T13:41:38;3.70;;;2.53;;
14903;SDS011;7543;53.148;8.234;2023-04-23T13:44:06;3.65;;;2.20;;
14903;SDS011;7543;53.148;8.234;2023-04-23T13:46:34;4.25;;;2.28;;
14903;SDS011;7543;53.148;8.234;2023-04-23T13:49:03;3.63;;;1.95;;
14903;SDS011;7543;53.148;8.234;2023-04-23T13:51:31;2.88;;;1.63;;
14903;SDS011;7543;53.148;8.234;2023-04-23T13:53:59;4.03;;;2.10;;
14903;SDS011;7543;53.148;8.234;2023-04-23T13:56:28;5.30;;;1.98;;
14903;SDS011;7543;53.148;8.234;2023-04-23T13:58:58;3.30;;;2.22;;
14903;SDS011;7543;53.148;8.234;2023-04-23T14:01:28;4.32;;;2.00;;
14903;SDS011;7543;53.148;8.234;2023-04-23T14:03:56;3.47;;;2.20;;
14903;SDS011;7543;53.148;8.234;2023-04-23T14:06:24;3.63;;;2.15;;
14903;SDS011;7543;53.148;8.234;2023-04-23T14:08:53;3.67;;;2.15;;
14903;SDS011;7543;53.148;8.234;2023-04-23T14:11:22;4.60;;;2.30;;
14903;SDS011;7543;53.148;8.234;2023-04-23T14:13:51;3.28;;;2.35;;
14903;SDS011;7543;53.148;8.234;2023-04-23T14:16:20;2.80;;;2.17;;
14903;SDS011;7543;53.148;8.234;2023-04-23T14:18:49;4.07;;;2.70;;
14903;SDS011;7543;53.148;8.234;2023-04-23T14:21:17;2.35;;;2.00;;
14903;SDS011;7543;53.148;8.234;2023-04-23T14:23:50;3.35;;;2.17;;
14903;SDS011;7543;53.148;8.234;2023-04-23T14:26:27;3.58;;;2.13;;
14903;SDS011;7543;53.148;8.234;2023-04-23T14:29:01;3.17;;;2.10;;
14903;SDS011;7543;53.148;8.234;2023-04-23T14:31:32;5.35;;;2.00;;
14903;SDS011;7543;53.148;8.234;2023-04-23T14:34:01;3.03;;;1.67;;
14903;SDS011;7543;53.148;8.234;2023-04-23T14:36:29;3.92;;;1.35;;
14903;SDS011;7543;53.148;8.234;2023-04-23T14:38:57;2.22;;;1.25;;
14903;SDS011;7543;53.148;8.234;2023-04-23T14:41:30;1.98;;;1.40;;
14903;SDS011;7543;53.148;8.234;2023-04-23T14:43:59;2.33;;;1.35;;
14903;SDS011;7543;53.148;8.234;2023-04-23T14:46:28;2.85;;;1.42;;
14903;SDS011;7543;53.148;8.234;2023-04-23T14:48:58;2.60;;;1.30;;
14903;SDS011;7543;53.148;8.234;2023-04-23T14:51:26;2.20;;;1.33;;
14903;SDS011;7543;53.148;8.234;2023-04-23T14:53:54;3.15;;;1.50;;
14903;SDS011;7543;53.148;8.234;2023-04-23T14:56:23;1.55;;;1.05;;
14903;SDS011;7543;53.148;8.234;2023-04-23T14:58:51;2.95;;;1.30;;